Albany Airport (Australia)

Airport
ICAO code: 
YABA
IATA Code: 
ALH
Summary
ICAO Region: 
APAC
Territory: 
Location: 
Drome, Western Australia
Serving: 
Albany
Elevation: 
233 ft
Coordinates: 
Aerial View: 
34° 56' 35.88" S, 117° 48' 32.4" E
Metar
Observation
YABA 210500Z AUTO 10017KT 9999 // NCD 27/16 Q1016
Station
Albany Aerodrome
Date/Time
2022-01-21 05:00:00
Wind direction
100°
Wind speed
17 kts
Lowest cloud amount
no clouds detected
Temperature
27°C
Dew point
16°C
Humidity
51%
QNH
1016 hPa
Weather condition
n/a

Runways

Designator Length Width Surface Rops
5/23 1096 30 GVL No/No
14/32 1800 30 ASP No/No
Airport map: 
Aerial View: 

SKYbrary Partners:

Safety knowledge contributed by: